sensor_id;sensor_type;location;lat;lon;timestamp;P1;durP1;ratioP1;P2;durP2;ratioP2
15114;SDS011;7658;51.456;7.622;2023-07-31T00:00:27;11.57;;;7.07;;
15114;SDS011;7658;51.456;7.622;2023-07-31T00:02:53;12.60;;;6.78;;
15114;SDS011;7658;51.456;7.622;2023-07-31T00:05:20;13.65;;;7.13;;
15114;SDS011;7658;51.456;7.622;2023-07-31T00:07:45;14.25;;;7.70;;
15114;SDS011;7658;51.456;7.622;2023-07-31T00:10:11;14.18;;;7.35;;
15114;SDS011;7658;51.456;7.622;2023-07-31T00:12:41;15.38;;;7.55;;
15114;SDS011;7658;51.456;7.622;2023-07-31T00:15:08;11.88;;;7.50;;
15114;SDS011;7658;51.456;7.622;2023-07-31T00:17:34;16.65;;;7.07;;
15114;SDS011;7658;51.456;7.622;2023-07-31T00:20:01;14.35;;;7.82;;
15114;SDS011;7658;51.456;7.622;2023-07-31T00:22:27;14.23;;;7.72;;
15114;SDS011;7658;51.456;7.622;2023-07-31T00:24:53;20.95;;;7.93;;
15114;SDS011;7658;51.456;7.622;2023-07-31T00:27:18;13.02;;;7.85;;
15114;SDS011;7658;51.456;7.622;2023-07-31T00:29:44;13.57;;;7.63;;
15114;SDS011;7658;51.456;7.622;2023-07-31T00:32:10;17.80;;;8.60;;
15114;SDS011;7658;51.456;7.622;2023-07-31T00:34:35;16.10;;;8.85;;
15114;SDS011;7658;51.456;7.622;2023-07-31T00:37:02;18.77;;;9.40;;
15114;SDS011;7658;51.456;7.622;2023-07-31T00:39:29;21.10;;;8.95;;
15114;SDS011;7658;51.456;7.622;2023-07-31T00:41:56;20.38;;;9.23;;
15114;SDS011;7658;51.456;7.622;2023-07-31T00:44:21;20.00;;;9.45;;
15114;SDS011;7658;51.456;7.622;2023-07-31T00:46:47;17.23;;;9.10;;
15114;SDS011;7658;51.456;7.622;2023-07-31T00:49:14;20.05;;;8.35;;
15114;SDS011;7658;51.456;7.622;2023-07-31T00:51:40;20.75;;;8.98;;
15114;SDS011;7658;51.456;7.622;2023-07-31T00:54:06;16.27;;;8.45;;
15114;SDS011;7658;51.456;7.622;2023-07-31T00:56:32;17.75;;;8.73;;
15114;SDS011;7658;51.456;7.622;2023-07-31T00:58:58;14.80;;;8.50;;
15114;SDS011;7658;51.456;7.622;2023-07-31T01:01:24;17.58;;;7.97;;
15114;SDS011;7658;51.456;7.622;2023-07-31T01:03:50;19.65;;;9.13;;
15114;SDS011;7658;51.456;7.622;2023-07-31T01:06:41;17.80;;;8.63;;
15114;SDS011;7658;51.456;7.622;2023-07-31T01:09:16;20.40;;;9.85;;
15114;SDS011;7658;51.456;7.622;2023-07-31T01:11:48;18.52;;;8.93;;
15114;SDS011;7658;51.456;7.622;2023-07-31T01:14:18;26.15;;;9.35;;
15114;SDS011;7658;51.456;7.622;2023-07-31T01:16:44;23.92;;;9.90;;
15114;SDS011;7658;51.456;7.622;2023-07-31T01:19:10;22.42;;;9.27;;
15114;SDS011;7658;51.456;7.622;2023-07-31T01:21:48;19.40;;;8.60;;
15114;SDS011;7658;51.456;7.622;2023-07-31T01:24:43;16.90;;;8.55;;
15114;SDS011;7658;51.456;7.622;2023-07-31T01:27:17;16.40;;;8.15;;
15114;SDS011;7658;51.456;7.622;2023-07-31T01:30:05;19.88;;;9.45;;
15114;SDS011;7658;51.456;7.622;2023-07-31T01:32:40;18.98;;;8.82;;
15114;SDS011;7658;51.456;7.622;2023-07-31T01:35:07;22.25;;;8.57;;
15114;SDS011;7658;51.456;7.622;2023-07-31T01:37:33;22.50;;;9.38;;
15114;SDS011;7658;51.456;7.622;2023-07-31T01:39:59;21.05;;;8.70;;
15114;SDS011;7658;51.456;7.622;2023-07-31T01:42:25;24.52;;;9.55;;
15114;SDS011;7658;51.456;7.622;2023-07-31T01:44:51;19.30;;;9.23;;
15114;SDS011;7658;51.456;7.622;2023-07-31T01:47:16;20.83;;;9.00;;
15114;SDS011;7658;51.456;7.622;2023-07-31T01:49:42;21.05;;;8.38;;
15114;SDS011;7658;51.456;7.622;2023-07-31T01:52:08;19.58;;;8.68;;
15114;SDS011;7658;51.456;7.622;2023-07-31T01:54:34;22.27;;;9.95;;
15114;SDS011;7658;51.456;7.622;2023-07-31T01:57:01;16.92;;;8.80;;
15114;SDS011;7658;51.456;7.622;2023-07-31T01:59:27;22.30;;;8.77;;
15114;SDS011;7658;51.456;7.622;2023-07-31T02:01:54;15.63;;;7.93;;
15114;SDS011;7658;51.456;7.622;2023-07-31T02:04:19;25.13;;;8.10;;
15114;SDS011;7658;51.456;7.622;2023-07-31T02:06:45;18.98;;;8.20;;
15114;SDS011;7658;51.456;7.622;2023-07-31T02:09:11;13.75;;;7.60;;
15114;SDS011;7658;51.456;7.622;2023-07-31T02:11:36;13.80;;;7.30;;
15114;SDS011;7658;51.456;7.622;2023-07-31T02:14:02;23.80;;;7.78;;
15114;SDS011;7658;51.456;7.622;2023-07-31T02:16:28;14.85;;;7.28;;
15114;SDS011;7658;51.456;7.622;2023-07-31T02:18:54;16.70;;;7.47;;
15114;SDS011;7658;51.456;7.622;2023-07-31T02:21:19;14.27;;;6.63;;
15114;SDS011;7658;51.456;7.622;2023-07-31T02:23:45;18.55;;;7.47;;
15114;SDS011;7658;51.456;7.622;2023-07-31T02:26:11;15.90;;;7.00;;
15114;SDS011;7658;51.456;7.622;2023-07-31T02:28:36;18.70;;;6.93;;
15114;SDS011;7658;51.456;7.622;2023-07-31T02:31:02;12.30;;;6.93;;
15114;SDS011;7658;51.456;7.622;2023-07-31T02:33:28;15.85;;;6.88;;
15114;SDS011;7658;51.456;7.622;2023-07-31T02:35:54;16.70;;;7.55;;
15114;SDS011;7658;51.456;7.622;2023-07-31T02:38:19;20.08;;;7.93;;
15114;SDS011;7658;51.456;7.622;2023-07-31T02:40:45;10.70;;;5.90;;
15114;SDS011;7658;51.456;7.622;2023-07-31T02:43:11;12.25;;;6.38;;
15114;SDS011;7658;51.456;7.622;2023-07-31T02:45:37;19.40;;;7.68;;
15114;SDS011;7658;51.456;7.622;2023-07-31T02:48:03;20.50;;;6.68;;
15114;SDS011;7658;51.456;7.622;2023-07-31T02:50:28;18.27;;;6.82;;
15114;SDS011;7658;51.456;7.622;2023-07-31T02:52:54;13.98;;;6.57;;
15114;SDS011;7658;51.456;7.622;2023-07-31T02:55:20;13.48;;;6.22;;
15114;SDS011;7658;51.456;7.622;2023-07-31T02:57:46;13.40;;;6.40;;
15114;SDS011;7658;51.456;7.622;2023-07-31T03:00:12;20.10;;;7.05;;
15114;SDS011;7658;51.456;7.622;2023-07-31T03:02:38;12.68;;;6.80;;
15114;SDS011;7658;51.456;7.622;2023-07-31T03:05:04;14.75;;;7.18;;
15114;SDS011;7658;51.456;7.622;2023-07-31T03:07:29;14.52;;;6.50;;
15114;SDS011;7658;51.456;7.622;2023-07-31T03:09:56;16.17;;;5.93;;
15114;SDS011;7658;51.456;7.622;2023-07-31T03:12:21;13.85;;;6.55;;
15114;SDS011;7658;51.456;7.622;2023-07-31T03:14:47;23.05;;;7.13;;
15114;SDS011;7658;51.456;7.622;2023-07-31T03:17:13;16.67;;;6.38;;
15114;SDS011;7658;51.456;7.622;2023-07-31T03:19:38;16.98;;;6.40;;
15114;SDS011;7658;51.456;7.622;2023-07-31T03:22:04;10.70;;;6.68;;
15114;SDS011;7658;51.456;7.622;2023-07-31T03:24:30;14.88;;;6.70;;
15114;SDS011;7658;51.456;7.622;2023-07-31T03:26:56;11.30;;;6.18;;
15114;SDS011;7658;51.456;7.622;2023-07-31T03:29:22;14.52;;;6.22;;
15114;SDS011;7658;51.456;7.622;2023-07-31T03:31:47;14.10;;;6.75;;
15114;SDS011;7658;51.456;7.622;2023-07-31T03:36:47;14.63;;;6.45;;
15114;SDS011;7658;51.456;7.622;2023-07-31T03:39:39;16.70;;;6.53;;
15114;SDS011;7658;51.456;7.622;2023-07-31T03:42:11;15.65;;;6.40;;
15114;SDS011;7658;51.456;7.622;2023-07-31T03:44:37;18.27;;;7.22;;
15114;SDS011;7658;51.456;7.622;2023-07-31T03:47:03;12.88;;;5.72;;
15114;SDS011;7658;51.456;7.622;2023-07-31T03:49:29;17.88;;;6.57;;
15114;SDS011;7658;51.456;7.622;2023-07-31T03:51:54;17.13;;;7.25;;
15114;SDS011;7658;51.456;7.622;2023-07-31T03:54:20;17.77;;;6.85;;
15114;SDS011;7658;51.456;7.622;2023-07-31T03:56:46;15.63;;;6.13;;
15114;SDS011;7658;51.456;7.622;2023-07-31T03:59:11;15.18;;;6.00;;
15114;SDS011;7658;51.456;7.622;2023-07-31T04:01:37;14.50;;;6.43;;
15114;SDS011;7658;51.456;7.622;2023-07-31T04:04:03;16.35;;;6.75;;
15114;SDS011;7658;51.456;7.622;2023-07-31T04:06:29;17.08;;;6.22;;
15114;SDS011;7658;51.456;7.622;2023-07-31T04:08:54;15.10;;;7.05;;
15114;SDS011;7658;51.456;7.622;2023-07-31T04:11:20;15.05;;;5.90;;
15114;SDS011;7658;51.456;7.622;2023-07-31T04:13:46;11.65;;;6.40;;
15114;SDS011;7658;51.456;7.622;2023-07-31T04:16:11;14.35;;;6.50;;
15114;SDS011;7658;51.456;7.622;2023-07-31T04:18:37;11.63;;;6.18;;
15114;SDS011;7658;51.456;7.622;2023-07-31T04:21:04;17.45;;;6.07;;
15114;SDS011;7658;51.456;7.622;2023-07-31T04:23:30;15.27;;;5.88;;
15114;SDS011;7658;51.456;7.622;2023-07-31T04:25:56;11.60;;;5.70;;
15114;SDS011;7658;51.456;7.622;2023-07-31T04:28:22;14.25;;;6.28;;
15114;SDS011;7658;51.456;7.622;2023-07-31T04:30:47;16.17;;;5.30;;
15114;SDS011;7658;51.456;7.622;2023-07-31T04:33:13;14.43;;;5.25;;
15114;SDS011;7658;51.456;7.622;2023-07-31T04:35:39;16.70;;;5.88;;
15114;SDS011;7658;51.456;7.622;2023-07-31T04:38:05;11.68;;;6.45;;
15114;SDS011;7658;51.456;7.622;2023-07-31T04:40:30;11.90;;;5.65;;
15114;SDS011;7658;51.456;7.622;2023-07-31T04:42:56;15.00;;;5.63;;
15114;SDS011;7658;51.456;7.622;2023-07-31T04:45:22;16.95;;;6.60;;
15114;SDS011;7658;51.456;7.622;2023-07-31T04:47:48;16.10;;;6.07;;
15114;SDS011;7658;51.456;7.622;2023-07-31T04:50:13;14.73;;;6.10;;
15114;SDS011;7658;51.456;7.622;2023-07-31T04:52:39;13.27;;;6.18;;
15114;SDS011;7658;51.456;7.622;2023-07-31T04:55:05;12.82;;;5.90;;
15114;SDS011;7658;51.456;7.622;2023-07-31T04:57:30;13.32;;;5.50;;
15114;SDS011;7658;51.456;7.622;2023-07-31T04:59:56;12.20;;;6.18;;
15114;SDS011;7658;51.456;7.622;2023-07-31T05:02:22;11.60;;;5.95;;
15114;SDS011;7658;51.456;7.622;2023-07-31T05:04:48;13.55;;;5.88;;
15114;SDS011;7658;51.456;7.622;2023-07-31T05:07:13;12.63;;;5.38;;
15114;SDS011;7658;51.456;7.622;2023-07-31T05:09:39;14.73;;;5.97;;
15114;SDS011;7658;51.456;7.622;2023-07-31T05:12:05;11.13;;;5.90;;
15114;SDS011;7658;51.456;7.622;2023-07-31T05:14:31;11.27;;;5.78;;
15114;SDS011;7658;51.456;7.622;2023-07-31T05:16:56;12.95;;;6.85;;
15114;SDS011;7658;51.456;7.622;2023-07-31T05:19:22;12.48;;;6.78;;
15114;SDS011;7658;51.456;7.622;2023-07-31T05:21:48;12.90;;;6.50;;
15114;SDS011;7658;51.456;7.622;2023-07-31T05:24:13;13.40;;;6.00;;
15114;SDS011;7658;51.456;7.622;2023-07-31T05:26:39;11.55;;;5.90;;
15114;SDS011;7658;51.456;7.622;2023-07-31T05:29:05;13.80;;;6.40;;
15114;SDS011;7658;51.456;7.622;2023-07-31T05:31:30;12.73;;;6.30;;
15114;SDS011;7658;51.456;7.622;2023-07-31T05:33:57;14.88;;;6.72;;
15114;SDS011;7658;51.456;7.622;2023-07-31T05:36:23;16.20;;;6.85;;
15114;SDS011;7658;51.456;7.622;2023-07-31T05:38:49;13.25;;;6.30;;
15114;SDS011;7658;51.456;7.622;2023-07-31T05:41:14;11.93;;;6.35;;
15114;SDS011;7658;51.456;7.622;2023-07-31T05:43:41;14.77;;;6.50;;
15114;SDS011;7658;51.456;7.622;2023-07-31T05:46:08;16.00;;;6.35;;
15114;SDS011;7658;51.456;7.622;2023-07-31T05:48:34;11.45;;;6.40;;
15114;SDS011;7658;51.456;7.622;2023-07-31T05:51:00;14.18;;;6.43;;
15114;SDS011;7658;51.456;7.622;2023-07-31T05:53:26;14.20;;;6.80;;
15114;SDS011;7658;51.456;7.622;2023-07-31T05:55:51;14.30;;;6.30;;
15114;SDS011;7658;51.456;7.622;2023-07-31T05:58:17;12.10;;;6.97;;
15114;SDS011;7658;51.456;7.622;2023-07-31T06:00:43;19.05;;;7.65;;
15114;SDS011;7658;51.456;7.622;2023-07-31T06:03:08;15.55;;;7.25;;
15114;SDS011;7658;51.456;7.622;2023-07-31T06:05:34;12.45;;;7.10;;
15114;SDS011;7658;51.456;7.622;2023-07-31T06:08:00;17.33;;;7.47;;
15114;SDS011;7658;51.456;7.622;2023-07-31T06:10:26;9.85;;;7.07;;
15114;SDS011;7658;51.456;7.622;2023-07-31T06:12:52;21.00;;;7.63;;
15114;SDS011;7658;51.456;7.622;2023-07-31T06:15:17;11.30;;;6.90;;
15114;SDS011;7658;51.456;7.622;2023-07-31T06:17:44;17.13;;;7.93;;
15114;SDS011;7658;51.456;7.622;2023-07-31T06:20:10;10.57;;;7.10;;
15114;SDS011;7658;51.456;7.622;2023-07-31T06:22:36;15.20;;;7.43;;
15114;SDS011;7658;51.456;7.622;2023-07-31T06:25:02;14.18;;;7.63;;
15114;SDS011;7658;51.456;7.622;2023-07-31T06:27:28;13.85;;;7.10;;
15114;SDS011;7658;51.456;7.622;2023-07-31T06:29:54;14.15;;;7.07;;
15114;SDS011;7658;51.456;7.622;2023-07-31T06:32:19;11.35;;;6.70;;
15114;SDS011;7658;51.456;7.622;2023-07-31T06:34:45;16.55;;;7.43;;
15114;SDS011;7658;51.456;7.622;2023-07-31T06:37:11;12.02;;;6.75;;
15114;SDS011;7658;51.456;7.622;2023-07-31T06:39:36;16.25;;;7.15;;
15114;SDS011;7658;51.456;7.622;2023-07-31T06:42:03;9.68;;;6.50;;
15114;SDS011;7658;51.456;7.622;2023-07-31T06:44:29;11.80;;;6.93;;
15114;SDS011;7658;51.456;7.622;2023-07-31T06:46:55;12.80;;;7.50;;
15114;SDS011;7658;51.456;7.622;2023-07-31T06:49:23;13.60;;;7.32;;
15114;SDS011;7658;51.456;7.622;2023-07-31T06:51:49;12.07;;;7.20;;
15114;SDS011;7658;51.456;7.622;2023-07-31T06:54:15;18.45;;;8.07;;
15114;SDS011;7658;51.456;7.622;2023-07-31T06:56:41;15.93;;;7.57;;
15114;SDS011;7658;51.456;7.622;2023-07-31T06:59:07;11.18;;;6.53;;
15114;SDS011;7658;51.456;7.622;2023-07-31T07:01:33;12.32;;;6.97;;
15114;SDS011;7658;51.456;7.622;2023-07-31T07:03:58;11.50;;;6.38;;
15114;SDS011;7658;51.456;7.622;2023-07-31T07:06:24;9.02;;;6.72;;
15114;SDS011;7658;51.456;7.622;2023-07-31T07:08:50;12.77;;;7.72;;
15114;SDS011;7658;51.456;7.622;2023-07-31T07:11:16;12.23;;;6.40;;
15114;SDS011;7658;51.456;7.622;2023-07-31T07:13:41;10.93;;;6.70;;
15114;SDS011;7658;51.456;7.622;2023-07-31T07:16:10;10.13;;;6.38;;
15114;SDS011;7658;51.456;7.622;2023-07-31T07:18:36;11.18;;;6.40;;
15114;SDS011;7658;51.456;7.622;2023-07-31T07:21:02;12.15;;;6.30;;
15114;SDS011;7658;51.456;7.622;2023-07-31T07:23:28;11.85;;;6.65;;
15114;SDS011;7658;51.456;7.622;2023-07-31T07:25:53;11.82;;;6.13;;
15114;SDS011;7658;51.456;7.622;2023-07-31T07:28:19;11.98;;;5.70;;
15114;SDS011;7658;51.456;7.622;2023-07-31T07:30:45;9.70;;;5.43;;
15114;SDS011;7658;51.456;7.622;2023-07-31T07:33:15;11.75;;;5.40;;
15114;SDS011;7658;51.456;7.622;2023-07-31T07:35:41;9.68;;;5.57;;
15114;SDS011;7658;51.456;7.622;2023-07-31T07:38:07;8.02;;;5.13;;
15114;SDS011;7658;51.456;7.622;2023-07-31T07:40:32;8.13;;;5.68;;
15114;SDS011;7658;51.456;7.622;2023-07-31T07:43:03;9.95;;;5.75;;
15114;SDS011;7658;51.456;7.622;2023-07-31T07:45:28;11.00;;;6.43;;
15114;SDS011;7658;51.456;7.622;2023-07-31T07:47:54;12.10;;;6.32;;
15114;SDS011;7658;51.456;7.622;2023-07-31T07:50:22;9.15;;;6.03;;
15114;SDS011;7658;51.456;7.622;2023-07-31T07:52:48;8.80;;;5.90;;
15114;SDS011;7658;51.456;7.622;2023-07-31T07:55:14;12.73;;;6.60;;
15114;SDS011;7658;51.456;7.622;2023-07-31T07:57:40;10.73;;;6.18;;
15114;SDS011;7658;51.456;7.622;2023-07-31T08:00:06;12.93;;;6.32;;
15114;SDS011;7658;51.456;7.622;2023-07-31T08:02:32;10.13;;;6.00;;
15114;SDS011;7658;51.456;7.622;2023-07-31T08:04:57;11.13;;;6.55;;
15114;SDS011;7658;51.456;7.622;2023-07-31T08:07:23;9.05;;;6.32;;
15114;SDS011;7658;51.456;7.622;2023-07-31T08:09:49;9.80;;;6.53;;
15114;SDS011;7658;51.456;7.622;2023-07-31T08:12:15;13.73;;;6.88;;
15114;SDS011;7658;51.456;7.622;2023-07-31T08:14:40;13.07;;;6.97;;
15114;SDS011;7658;51.456;7.622;2023-07-31T08:17:06;8.93;;;6.40;;
15114;SDS011;7658;51.456;7.622;2023-07-31T08:19:32;8.93;;;6.47;;
15114;SDS011;7658;51.456;7.622;2023-07-31T08:21:58;13.95;;;7.15;;
15114;SDS011;7658;51.456;7.622;2023-07-31T08:24:23;11.85;;;6.63;;
15114;SDS011;7658;51.456;7.622;2023-07-31T08:26:49;11.68;;;5.88;;
15114;SDS011;7658;51.456;7.622;2023-07-31T08:29:15;12.23;;;6.88;;
15114;SDS011;7658;51.456;7.622;2023-07-31T08:31:41;11.10;;;5.82;;
15114;SDS011;7658;51.456;7.622;2023-07-31T08:34:06;11.35;;;6.13;;
15114;SDS011;7658;51.456;7.622;2023-07-31T08:36:32;12.95;;;5.70;;
15114;SDS011;7658;51.456;7.622;2023-07-31T08:38:58;14.30;;;7.03;;
15114;SDS011;7658;51.456;7.622;2023-07-31T08:41:24;9.90;;;5.80;;
15114;SDS011;7658;51.456;7.622;2023-07-31T08:43:50;9.77;;;6.00;;
15114;SDS011;7658;51.456;7.622;2023-07-31T08:46:17;11.43;;;6.68;;
15114;SDS011;7658;51.456;7.622;2023-07-31T08:48:45;9.63;;;5.88;;
15114;SDS011;7658;51.456;7.622;2023-07-31T08:51:13;8.85;;;5.90;;
15114;SDS011;7658;51.456;7.622;2023-07-31T08:53:39;8.45;;;5.30;;
15114;SDS011;7658;51.456;7.622;2023-07-31T08:56:05;10.77;;;6.63;;
15114;SDS011;7658;51.456;7.622;2023-07-31T08:58:31;8.70;;;5.05;;
15114;SDS011;7658;51.456;7.622;2023-07-31T09:01:01;7.78;;;5.10;;
15114;SDS011;7658;51.456;7.622;2023-07-31T09:03:31;9.85;;;4.70;;
15114;SDS011;7658;51.456;7.622;2023-07-31T09:06:02;8.90;;;5.60;;
15114;SDS011;7658;51.456;7.622;2023-07-31T09:08:31;7.88;;;5.28;;
15114;SDS011;7658;51.456;7.622;2023-07-31T09:11:00;6.35;;;4.88;;
15114;SDS011;7658;51.456;7.622;2023-07-31T09:13:30;12.45;;;5.68;;
15114;SDS011;7658;51.456;7.622;2023-07-31T09:15:56;5.97;;;4.30;;
15114;SDS011;7658;51.456;7.622;2023-07-31T09:18:22;8.88;;;4.60;;
15114;SDS011;7658;51.456;7.622;2023-07-31T09:21:04;11.60;;;5.07;;
15114;SDS011;7658;51.456;7.622;2023-07-31T09:23:40;7.00;;;4.93;;
15114;SDS011;7658;51.456;7.622;2023-07-31T09:26:07;5.70;;;4.32;;
15114;SDS011;7658;51.456;7.622;2023-07-31T09:28:34;7.05;;;4.93;;
15114;SDS011;7658;51.456;7.622;2023-07-31T09:31:00;5.90;;;4.63;;
15114;SDS011;7658;51.456;7.622;2023-07-31T09:33:35;6.55;;;4.18;;
15114;SDS011;7658;51.456;7.622;2023-07-31T09:36:31;5.30;;;4.15;;
15114;SDS011;7658;51.456;7.622;2023-07-31T09:39:11;5.00;;;4.38;;
15114;SDS011;7658;51.456;7.622;2023-07-31T09:42:14;7.75;;;4.75;;
15114;SDS011;7658;51.456;7.622;2023-07-31T09:44:39;5.95;;;4.25;;
15114;SDS011;7658;51.456;7.622;2023-07-31T09:47:10;6.70;;;4.50;;
15114;SDS011;7658;51.456;7.622;2023-07-31T09:50:13;8.38;;;4.85;;
15114;SDS011;7658;51.456;7.622;2023-07-31T09:52:47;8.27;;;4.85;;
15114;SDS011;7658;51.456;7.622;2023-07-31T09:55:13;8.05;;;5.10;;
15114;SDS011;7658;51.456;7.622;2023-07-31T09:57:45;7.03;;;4.80;;
15114;SDS011;7658;51.456;7.622;2023-07-31T10:00:13;9.38;;;4.80;;
15114;SDS011;7658;51.456;7.622;2023-07-31T10:02:41;10.10;;;5.47;;
15114;SDS011;7658;51.456;7.622;2023-07-31T10:05:09;10.80;;;5.72;;
15114;SDS011;7658;51.456;7.622;2023-07-31T10:07:49;6.50;;;5.35;;
15114;SDS011;7658;51.456;7.622;2023-07-31T10:10:20;12.48;;;4.97;;
15114;SDS011;7658;51.456;7.622;2023-07-31T10:12:52;6.70;;;5.03;;
15114;SDS011;7658;51.456;7.622;2023-07-31T10:15:18;8.38;;;5.05;;
15114;SDS011;7658;51.456;7.622;2023-07-31T10:17:48;8.20;;;5.18;;
15114;SDS011;7658;51.456;7.622;2023-07-31T10:20:15;7.63;;;5.20;;
15114;SDS011;7658;51.456;7.622;2023-07-31T10:22:42;8.90;;;5.15;;
15114;SDS011;7658;51.456;7.622;2023-07-31T10:25:09;7.10;;;4.82;;
15114;SDS011;7658;51.456;7.622;2023-07-31T10:27:35;12.18;;;5.15;;
15114;SDS011;7658;51.456;7.622;2023-07-31T10:30:03;8.73;;;4.90;;
15114;SDS011;7658;51.456;7.622;2023-07-31T10:32:31;7.40;;;4.90;;
15114;SDS011;7658;51.456;7.622;2023-07-31T10:34:58;6.85;;;4.60;;
15114;SDS011;7658;51.456;7.622;2023-07-31T10:37:29;6.55;;;4.65;;
15114;SDS011;7658;51.456;7.622;2023-07-31T10:42:35;7.50;;;4.75;;
15114;SDS011;7658;51.456;7.622;2023-07-31T10:45:08;5.60;;;4.13;;
15114;SDS011;7658;51.456;7.622;2023-07-31T10:47:46;5.97;;;4.55;;
15114;SDS011;7658;51.456;7.622;2023-07-31T10:50:19;4.63;;;3.80;;
15114;SDS011;7658;51.456;7.622;2023-07-31T10:52:49;4.22;;;3.80;;
15114;SDS011;7658;51.456;7.622;2023-07-31T10:57:58;4.43;;;4.03;;
15114;SDS011;7658;51.456;7.622;2023-07-31T11:00:31;5.55;;;4.90;;
15114;SDS011;7658;51.456;7.622;2023-07-31T11:02:58;4.60;;;4.20;;
15114;SDS011;7658;51.456;7.622;2023-07-31T11:08:17;5.28;;;4.78;;
15114;SDS011;7658;51.456;7.622;2023-07-31T11:11:07;5.75;;;4.95;;
15114;SDS011;7658;51.456;7.622;2023-07-31T11:13:49;6.50;;;5.00;;
15114;SDS011;7658;51.456;7.622;2023-07-31T11:16:22;6.72;;;5.00;;
15114;SDS011;7658;51.456;7.622;2023-07-31T11:18:50;5.40;;;4.90;;
15114;SDS011;7658;51.456;7.622;2023-07-31T11:21:22;6.38;;;5.10;;
15114;SDS011;7658;51.456;7.622;2023-07-31T11:23:50;5.55;;;5.00;;
15114;SDS011;7658;51.456;7.622;2023-07-31T11:26:21;8.63;;;5.68;;
15114;SDS011;7658;51.456;7.622;2023-07-31T11:28:49;6.03;;;5.20;;
15114;SDS011;7658;51.456;7.622;2023-07-31T11:31:19;10.07;;;5.18;;
15114;SDS011;7658;51.456;7.622;2023-07-31T11:33:46;9.43;;;6.10;;
15114;SDS011;7658;51.456;7.622;2023-07-31T11:36:20;6.43;;;4.70;;
15114;SDS011;7658;51.456;7.622;2023-07-31T11:38:46;6.13;;;5.22;;
15114;SDS011;7658;51.456;7.622;2023-07-31T11:41:16;9.95;;;5.50;;
15114;SDS011;7658;51.456;7.622;2023-07-31T11:43:42;6.57;;;5.43;;
15114;SDS011;7658;51.456;7.622;2023-07-31T11:46:09;7.38;;;5.60;;
15114;SDS011;7658;51.456;7.622;2023-07-31T11:48:35;6.95;;;5.53;;
15114;SDS011;7658;51.456;7.622;2023-07-31T11:51:05;6.63;;;4.82;;
15114;SDS011;7658;51.456;7.622;2023-07-31T11:56:21;9.27;;;5.53;;
15114;SDS011;7658;51.456;7.622;2023-07-31T11:59:01;8.00;;;5.25;;
15114;SDS011;7658;51.456;7.622;2023-07-31T12:01:34;7.03;;;5.20;;
15114;SDS011;7658;51.456;7.622;2023-07-31T12:04:13;9.18;;;5.95;;
15114;SDS011;7658;51.456;7.622;2023-07-31T12:06:39;7.43;;;5.75;;
15114;SDS011;7658;51.456;7.622;2023-07-31T12:12:03;7.85;;;5.65;;
15114;SDS011;7658;51.456;7.622;2023-07-31T12:14:34;8.18;;;5.78;;
15114;SDS011;7658;51.456;7.622;2023-07-31T12:17:06;6.55;;;5.40;;
15114;SDS011;7658;51.456;7.622;2023-07-31T12:19:32;6.95;;;5.70;;
15114;SDS011;7658;51.456;7.622;2023-07-31T12:22:10;7.22;;;5.60;;
15114;SDS011;7658;51.456;7.622;2023-07-31T12:24:41;7.78;;;5.93;;
15114;SDS011;7658;51.456;7.622;2023-07-31T12:27:13;8.45;;;5.80;;
15114;SDS011;7658;51.456;7.622;2023-07-31T12:29:40;8.63;;;5.60;;
15114;SDS011;7658;51.456;7.622;2023-07-31T12:32:22;6.85;;;5.75;;
15114;SDS011;7658;51.456;7.622;2023-07-31T12:37:20;7.03;;;5.35;;
15114;SDS011;7658;51.456;7.622;2023-07-31T12:39:46;11.68;;;5.35;;
15114;SDS011;7658;51.456;7.622;2023-07-31T12:42:12;9.82;;;5.38;;
15114;SDS011;7658;51.456;7.622;2023-07-31T12:44:38;5.85;;;4.25;;
15114;SDS011;7658;51.456;7.622;2023-07-31T12:47:04;6.43;;;4.32;;
15114;SDS011;7658;51.456;7.622;2023-07-31T12:49:30;4.93;;;4.07;;
15114;SDS011;7658;51.456;7.622;2023-07-31T12:51:56;6.82;;;3.92;;
15114;SDS011;7658;51.456;7.622;2023-07-31T12:54:22;6.65;;;4.10;;
15114;SDS011;7658;51.456;7.622;2023-07-31T12:56:48;6.97;;;3.85;;
15114;SDS011;7658;51.456;7.622;2023-07-31T12:59:17;4.93;;;3.90;;
15114;SDS011;7658;51.456;7.622;2023-07-31T13:01:47;5.68;;;3.88;;
15114;SDS011;7658;51.456;7.622;2023-07-31T13:04:16;4.32;;;3.72;;
15114;SDS011;7658;51.456;7.622;2023-07-31T13:06:42;6.28;;;4.05;;
15114;SDS011;7658;51.456;7.622;2023-07-31T13:09:09;4.72;;;3.90;;
15114;SDS011;7658;51.456;7.622;2023-07-31T13:12:09;4.38;;;3.63;;
15114;SDS011;7658;51.456;7.622;2023-07-31T13:14:35;5.68;;;3.70;;
15114;SDS011;7658;51.456;7.622;2023-07-31T13:17:01;6.68;;;3.80;;
15114;SDS011;7658;51.456;7.622;2023-07-31T13:19:27;5.13;;;3.70;;
15114;SDS011;7658;51.456;7.622;2023-07-31T13:21:53;6.90;;;3.75;;
15114;SDS011;7658;51.456;7.622;2023-07-31T13:24:19;4.90;;;3.72;;
15114;SDS011;7658;51.456;7.622;2023-07-31T13:26:45;11.18;;;3.78;;
15114;SDS011;7658;51.456;7.622;2023-07-31T13:29:10;5.13;;;3.63;;
15114;SDS011;7658;51.456;7.622;2023-07-31T13:31:36;5.03;;;3.63;;
15114;SDS011;7658;51.456;7.622;2023-07-31T13:34:02;4.13;;;3.30;;
15114;SDS011;7658;51.456;7.622;2023-07-31T13:36:28;6.70;;;4.28;;
15114;SDS011;7658;51.456;7.622;2023-07-31T13:38:54;4.97;;;3.88;;
15114;SDS011;7658;51.456;7.622;2023-07-31T13:41:19;4.97;;;3.88;;
15114;SDS011;7658;51.456;7.622;2023-07-31T13:43:45;5.97;;;3.90;;
15114;SDS011;7658;51.456;7.622;2023-07-31T13:46:11;4.88;;;3.80;;
15114;SDS011;7658;51.456;7.622;2023-07-31T13:48:37;5.32;;;3.63;;
15114;SDS011;7658;51.456;7.622;2023-07-31T13:51:02;7.72;;;4.20;;
15114;SDS011;7658;51.456;7.622;2023-07-31T13:53:28;5.00;;;3.78;;
15114;SDS011;7658;51.456;7.622;2023-07-31T13:55:54;4.88;;;3.78;;
15114;SDS011;7658;51.456;7.622;2023-07-31T13:58:20;6.15;;;3.42;;
15114;SDS011;7658;51.456;7.622;2023-07-31T14:00:46;4.38;;;3.50;;
15114;SDS011;7658;51.456;7.622;2023-07-31T14:03:12;5.38;;;3.47;;
15114;SDS011;7658;51.456;7.622;2023-07-31T14:05:37;4.72;;;3.40;;
15114;SDS011;7658;51.456;7.622;2023-07-31T14:08:03;5.50;;;3.47;;
15114;SDS011;7658;51.456;7.622;2023-07-31T14:10:29;4.35;;;3.33;;
15114;SDS011;7658;51.456;7.622;2023-07-31T14:12:55;3.90;;;3.58;;
15114;SDS011;7658;51.456;7.622;2023-07-31T14:15:24;5.00;;;3.97;;
15114;SDS011;7658;51.456;7.622;2023-07-31T14:17:52;4.32;;;3.92;;
15114;SDS011;7658;51.456;7.622;2023-07-31T14:20:18;6.32;;;4.60;;
15114;SDS011;7658;51.456;7.622;2023-07-31T14:22:44;8.27;;;4.35;;
15114;SDS011;7658;51.456;7.622;2023-07-31T14:25:10;5.95;;;4.32;;
15114;SDS011;7658;51.456;7.622;2023-07-31T14:27:36;6.35;;;4.43;;
15114;SDS011;7658;51.456;7.622;2023-07-31T14:30:02;6.97;;;5.00;;
15114;SDS011;7658;51.456;7.622;2023-07-31T14:32:28;7.57;;;4.90;;
15114;SDS011;7658;51.456;7.622;2023-07-31T14:34:54;4.80;;;4.22;;
15114;SDS011;7658;51.456;7.622;2023-07-31T14:37:20;5.15;;;4.60;;
15114;SDS011;7658;51.456;7.622;2023-07-31T14:39:45;4.68;;;4.10;;
15114;SDS011;7658;51.456;7.622;2023-07-31T14:42:11;8.60;;;4.75;;
15114;SDS011;7658;51.456;7.622;2023-07-31T14:44:37;9.52;;;4.50;;
15114;SDS011;7658;51.456;7.622;2023-07-31T14:47:04;5.22;;;4.28;;
15114;SDS011;7658;51.456;7.622;2023-07-31T14:49:40;7.10;;;4.15;;
15114;SDS011;7658;51.456;7.622;2023-07-31T14:52:12;5.90;;;4.07;;
15114;SDS011;7658;51.456;7.622;2023-07-31T14:54:38;6.40;;;4.03;;
15114;SDS011;7658;51.456;7.622;2023-07-31T14:57:08;10.27;;;4.15;;
15114;SDS011;7658;51.456;7.622;2023-07-31T14:59:34;7.45;;;3.70;;
15114;SDS011;7658;51.456;7.622;2023-07-31T15:02:00;4.95;;;3.92;;
15114;SDS011;7658;51.456;7.622;2023-07-31T15:04:29;4.97;;;3.85;;
15114;SDS011;7658;51.456;7.622;2023-07-31T15:06:55;7.55;;;4.45;;
15114;SDS011;7658;51.456;7.622;2023-07-31T15:09:21;7.07;;;4.00;;
15114;SDS011;7658;51.456;7.622;2023-07-31T15:11:49;4.97;;;3.67;;
15114;SDS011;7658;51.456;7.622;2023-07-31T15:14:16;9.95;;;4.13;;